Vine Grove, KY (40175)

8:57 PM EST on December 09, 2016 (GMT -0500)
| | Change Station

Elev -9999 ft 0.00 °N, 0.00 °E | Updated 57 seconds ago

Partly Cloudy
Partly Cloudy
65 °F
Feels Like 65 °F
N
1
Wind Variable Wind from SSE
Gusts mph

Today
High -- | Low -- °F
--% Chance of Precip.
Yesterday
High -- | Low -- °F
Precip. -- in
Pressure 30.53 in
Visibility 10.0 miles
Clouds Scattered Clouds 2800 ft
Dew Point 62 °F
Humidity 90%
Rainfall --
Snow Depth Not available.
7:48 AM 5:24 PM
Waxing Gibbous, 79% visible
SPECI KFTK 100128Z AUTO 34001KT 10SM SCT028 M06/M10 A3053 RMK AO2
Pressure 30.53 in
Visibility 10.0 miles
Clouds Scattered Clouds 2800 ft
Dew Point 62 °F
Humidity 90%
Rainfall --
Snow Depth Not available.
7:48 AM 5:24 PM
Waxing Gibbous, 79% visible
SPECI KFTK 100128Z AUTO 34001KT 10SM SCT028 M06/M10 A3053 RMK AO2

10-Day Weather Forecast

Almanac

Astronomy

Dec. 09, 2016 Rise Set
Actual Time
Civil Twilight
Nautical Twilight
Astronomical Twilight
Moon
Length of Visible Light
Length of Day
Tomorrow will be .
, % of the Moon is Illuminated

Today's Extremes

State Highs State Lows

Community

WunderPhotos

Upload Photos

1,956,532 photos uploaded!

WunderBlog® & News

Nearby

Air Quality

  Air Quality AQ Index Pollutant
Not available.

Snow Depth

Station Depth Elevation

Earthquake Activity

City Distance Mag. Time & Date
Minimum magnitude displayed is 2.5.

Coastal Water Temperatures

Place Temperature

Stations

Nearby Weather Stations

Station Location Temp. Windchill Dew Point Humidity Wind Precip. Elev Updated Type
                   

Watches & Warnings

There are currently no watches in effect.